Time;durP1;ratioP1;P1;durP2;ratioP2;P2;SDS_P1;SDS_P2;PMS_P1;PMS_P2;Temp;Humidity;BMP_temperature;BMP_pressure;BME280_temperature;BME280_humidity;BME280_pressure;Samples;Min_cycle;Max_cycle;Signal;HPM_P1;HPM_P2
2020/12/05 00:01:55;;;;;;;17.40;15.63;;;5.30;90.20;;;;;;5028689;28;20209;-90
2020/12/05 00:04:21;;;;;;;14.53;13.10;;;5.30;90.10;;;;;;5012460;28;20284;-90
2020/12/05 00:06:46;;;;;;;17.63;14.40;;;5.30;89.90;;;;;;5028971;28;20241;-90
2020/12/05 00:09:12;;;;;;;16.47;13.60;;;5.30;89.20;;;;;;5019387;28;20224;-90
2020/12/05 00:11:38;;;;;;;19.53;15.97;;;5.30;89.10;;;;;;5048768;28;20208;-90
2020/12/05 00:14:04;;;;;;;15.53;14.03;;;5.30;89.50;;;;;;5052857;28;20570;-90
2020/12/05 00:16:30;;;;;;;17.50;15.00;;;5.30;89.40;;;;;;5086502;28;20176;-90
2020/12/05 00:18:56;;;;;;;15.90;14.17;;;5.30;88.90;;;;;;5052034;28;20212;-90
2020/12/05 00:21:23;;;;;;;14.43;13.03;;;5.40;88.50;;;;;;5051685;28;20211;-90
2020/12/05 00:23:50;;;;;;;14.63;13.13;;;5.40;88.50;;;;;;5068374;28;20218;-90
2020/12/05 00:26:20;;;;;;;16.57;14.77;;;5.40;88.70;;;;;;5055201;28;20221;-90
2020/12/05 00:28:47;;;;;;;17.63;15.73;;;5.40;88.80;;;;;;5090014;28;20222;-91
2020/12/05 00:31:13;;;;;;;20.40;17.23;;;5.40;88.80;;;;;;5074335;28;20255;-91
2020/12/05 00:33:40;;;;;;;18.83;15.33;;;5.20;89.70;;;;;;5072248;28;20183;-90
2020/12/05 00:36:09;;;;;;;18.80;15.97;;;5.20;90.10;;;;;;5072438;28;20180;-90
2020/12/05 00:38:35;;;;;;;19.60;15.97;;;5.20;90.10;;;;;;5049198;28;20176;-90
2020/12/05 00:41:04;;;;;;;20.77;17.63;;;5.10;91.20;;;;;;5069077;28;20272;-90
2020/12/05 00:43:31;;;;;;;20.70;17.53;;;5.10;90.70;;;;;;5068573;28;20192;-90
2020/12/05 00:45:57;;;;;;;21.07;17.50;;;5.00;90.60;;;;;;5069119;28;20538;-90
2020/12/05 00:48:23;;;;;;;19.23;16.77;;;5.10;91.00;;;;;;5069115;28;20176;-90
2020/12/05 00:50:49;;;;;;;19.37;17.37;;;5.10;90.60;;;;;;5069386;28;20188;-89
2020/12/05 00:53:15;;;;;;;20.37;17.47;;;5.10;90.50;;;;;;5052223;28;20528;-90
2020/12/05 00:55:43;;;;;;;18.77;16.70;;;5.10;90.20;;;;;;5069397;28;20188;-90
2020/12/05 00:58:09;;;;;;;17.27;15.43;;;5.00;90.90;;;;;;5064041;28;20259;-90
2020/12/05 01:00:34;;;;;;;20.27;16.87;;;5.10;90.90;;;;;;5051707;28;20208;-89
2020/12/05 01:03:00;;;;;;;20.10;17.47;;;5.10;90.90;;;;;;5053842;28;20578;-90
2020/12/05 01:05:26;;;;;;;20.40;18.30;;;5.00;90.40;;;;;;5053756;28;20188;-90
2020/12/05 01:07:51;;;;;;;18.40;16.50;;;5.00;89.90;;;;;;5051978;28;20181;-89
2020/12/05 01:10:17;;;;;;;19.73;17.17;;;5.00;90.40;;;;;;5069058;28;20200;-90
2020/12/05 01:12:43;;;;;;;19.07;16.93;;;5.10;89.60;;;;;;5069186;28;20176;-90
2020/12/05 01:15:09;;;;;;;20.07;18.07;;;4.90;90.70;;;;;;5031283;28;20187;-89
2020/12/05 01:17:37;;;;;;;20.73;18.50;;;4.90;91.10;;;;;;5045424;28;20176;-88
2020/12/05 01:20:04;;;;;;;22.23;18.23;;;4.90;90.80;;;;;;5029650;28;20215;-89
2020/12/05 01:22:30;;;;;;;19.67;17.13;;;4.90;90.60;;;;;;5040561;28;20197;-90
2020/12/05 01:24:56;;;;;;;19.23;16.50;;;4.90;90.80;;;;;;5027315;28;20184;-89
2020/12/05 01:27:21;;;;;;;18.87;16.77;;;5.00;90.40;;;;;;5059022;28;20244;-88
2020/12/05 01:29:47;;;;;;;18.67;16.63;;;5.00;90.10;;;;;;5055513;28;20184;-89
2020/12/05 01:32:13;;;;;;;19.30;17.20;;;5.00;90.00;;;;;;5027812;28;20209;-90
2020/12/05 01:34:39;;;;;;;20.97;17.43;;;4.90;90.50;;;;;;5050449;28;20196;-88
2020/12/05 01:37:05;;;;;;;18.43;16.47;;;5.00;90.00;;;;;;5040947;28;20169;-88
2020/12/05 01:39:30;;;;;;;19.03;16.30;;;5.00;89.90;;;;;;5055040;28;20508;-89
2020/12/05 01:41:56;;;;;;;18.73;16.73;;;5.00;89.90;;;;;;5044716;28;20236;-90
2020/12/05 01:44:22;;;;;;;19.73;16.93;;;5.00;90.20;;;;;;5026999;28;20555;-90
2020/12/05 01:46:48;;;;;;;22.37;17.83;;;4.90;90.50;;;;;;5010670;28;20201;-89
2020/12/05 01:49:17;;;;;;;18.33;16.27;;;5.00;90.60;;;;;;5043025;28;20583;-89
2020/12/05 01:51:44;;;;;;;19.53;17.43;;;5.00;90.70;;;;;;5024503;28;20211;-90
2020/12/05 01:54:11;;;;;;;19.00;14.27;;;5.00;90.50;;;;;;5041811;28;20271;-89
2020/12/05 01:56:38;;;;;;;18.13;16.27;;;5.00;90.60;;;;;;5062767;28;20184;-90
2020/12/05 01:59:04;;;;;;;17.27;15.33;;;5.00;90.80;;;;;;5045457;28;20188;-89
2020/12/05 02:01:30;;;;;;;17.73;15.83;;;4.90;90.80;;;;;;5047152;28;20204;-89
2020/12/05 02:03:57;;;;;;;17.43;15.40;;;4.80;92.00;;;;;;5064403;28;20180;-89
2020/12/05 02:06:25;;;;;;;18.83;15.83;;;4.90;91.80;;;;;;5063496;28;20188;-89
2020/12/05 02:09:01;;;;;;;19.17;15.77;;;4.90;91.40;;;;;;5060010;28;20235;-89
2020/12/05 02:11:31;;;;;;;17.00;15.23;;;4.90;91.70;;;;;;5026568;28;20208;-89
2020/12/05 02:14:01;;;;;;;16.27;14.33;;;4.90;91.90;;;;;;5026553;28;20596;-89
2020/12/05 02:16:28;;;;;;;18.03;16.13;;;4.90;92.10;;;;;;5044458;28;20750;-89
2020/12/05 02:18:56;;;;;;;17.47;15.33;;;4.80;92.30;;;;;;5063254;28;20663;-89
2020/12/05 02:21:25;;;;;;;18.17;15.77;;;4.70;92.90;;;;;;5046268;28;20196;-89
2020/12/05 02:23:52;;;;;;;19.87;16.83;;;4.50;95.00;;;;;;5064509;28;20672;-88
2020/12/05 02:26:18;;;;;;;17.37;15.30;;;4.40;96.20;;;;;;5045797;28;20188;-89
2020/12/05 02:28:43;;;;;;;19.10;15.47;;;4.30;97.30;;;;;;5064400;28;20206;-89
2020/12/05 02:31:11;;;;;;;17.43;15.53;;;4.10;98.70;;;;;;5046231;28;20291;-89
2020/12/05 02:33:37;;;;;;;15.77;14.07;;;4.20;98.70;;;;;;5063709;28;20240;-89
2020/12/05 02:36:02;;;;;;;16.47;14.73;;;4.30;98.20;;;;;;5063260;28;20188;-88
2020/12/05 02:38:38;;;;;;;16.50;14.80;;;4.50;97.60;;;;;;5063662;28;20180;-89
2020/12/05 02:41:04;;;;;;;17.87;16.00;;;4.40;97.70;;;;;;5063445;28;20214;-88
2020/12/05 02:43:30;;;;;;;17.17;15.43;;;4.40;98.60;;;;;;5063533;28;20235;-89
2020/12/05 02:45:55;;;;;;;17.57;15.77;;;4.70;97.50;;;;;;5029319;28;20632;-89
2020/12/05 02:48:21;;;;;;;17.20;15.40;;;4.70;97.20;;;;;;5063428;28;20184;-88
2020/12/05 02:50:47;;;;;;;14.30;12.80;;;4.70;96.80;;;;;;5044965;28;20207;-89
2020/12/05 02:53:13;;;;;;;15.23;13.63;;;4.70;96.90;;;;;;5062910;28;20187;-89
2020/12/05 02:55:39;;;;;;;17.23;14.47;;;4.70;97.40;;;;;;5045239;28;20242;-89
2020/12/05 02:58:04;;;;;;;14.23;12.83;;;4.60;98.00;;;;;;5045085;28;20255;-89
2020/12/05 03:00:30;;;;;;;14.10;12.70;;;4.50;99.00;;;;;;5046125;28;20215;-90
2020/12/05 03:02:56;;;;;;;13.27;11.97;;;4.40;99.10;;;;;;5063405;28;20618;-90
2020/12/05 03:05:22;;;;;;;11.40;10.30;;;4.40;99.90;;;;;;5028910;28;20188;-89
2020/12/05 03:07:47;;;;;;;12.00;10.80;;;4.30;99.90;;;;;;5036000;28;20255;-89
2020/12/05 03:10:16;;;;;;;10.73;9.63;;;4.30;99.90;;;;;;5030564;28;20208;-88
2020/12/05 03:12:42;;;;;;;9.37;8.47;;;4.20;99.90;;;;;;5031287;28;20207;-89
2020/12/05 03:15:08;;;;;;;6.20;5.60;;;4.20;99.50;;;;;;5043992;28;20321;-89
2020/12/05 03:17:34;;;;;;;7.23;5.50;;;4.10;98.30;;;;;;5008117;28;20200;-89
2020/12/05 03:19:59;;;;;;;5.90;4.80;;;4.10;98.60;;;;;;5024440;28;20200;-90
2020/12/05 03:22:25;;;;;;;5.57;4.50;;;4.00;98.90;;;;;;5025406;28;20211;-89
2020/12/05 03:24:51;;;;;;;4.80;4.20;;;4.10;98.10;;;;;;5063477;28;20189;-89
2020/12/05 03:27:17;;;;;;;3.60;3.30;;;4.10;98.20;;;;;;5063150;28;20180;-88
2020/12/05 03:29:42;;;;;;;3.80;3.47;;;4.00;98.40;;;;;;5063206;28;20187;-89
2020/12/05 03:32:20;;;;;;;3.80;3.40;;;3.90;99.40;;;;;;5045942;28;20278;-89
2020/12/05 03:34:45;;;;;;;4.73;3.10;;;3.80;99.00;;;;;;5064143;28;20631;-89
2020/12/05 03:37:12;;;;;;;3.10;2.80;;;3.80;99.60;;;;;;5029153;28;20206;-89
2020/12/05 03:39:38;;;;;;;2.70;2.50;;;3.90;98.80;;;;;;5062931;28;20667;-90
2020/12/05 03:42:04;;;;;;;2.63;2.43;;;3.80;98.50;;;;;;5044451;28;20258;-89
2020/12/05 03:44:30;;;;;;;2.73;2.53;;;3.80;99.10;;;;;;5046066;28;20180;-89
2020/12/05 03:46:57;;;;;;;2.70;2.50;;;3.80;98.00;;;;;;5045182;28;20214;-90
2020/12/05 03:49:22;;;;;;;2.60;2.40;;;3.80;98.50;;;;;;5064203;28;20272;-90
2020/12/05 03:51:48;;;;;;;2.67;2.47;;;3.80;98.90;;;;;;5062319;28;20212;-90
2020/12/05 03:54:14;;;;;;;2.50;2.30;;;3.80;99.10;;;;;;5029120;28;20189;-90
2020/12/05 03:56:40;;;;;;;2.67;2.47;;;3.80;97.70;;;;;;5044389;28;20211;-90
2020/12/05 03:59:06;;;;;;;3.33;2.30;;;3.80;97.90;;;;;;5045228;28;20349;-90
2020/12/05 04:01:32;;;;;;;2.53;2.13;;;3.80;98.80;;;;;;5065971;28;20234;-92
2020/12/05 04:03:57;;;;;;;2.50;2.30;;;3.80;98.60;;;;;;5066076;28;20177;-91
2020/12/05 04:06:23;;;;;;;2.60;2.33;;;3.70;98.30;;;;;;5049735;28;20247;-91
2020/12/05 04:08:49;;;;;;;2.20;2.00;;;3.80;97.80;;;;;;5047008;28;20639;-91
2020/12/05 04:11:14;;;;;;;2.10;1.90;;;3.80;97.30;;;;;;5077596;28;20196;-90
2020/12/05 04:13:40;;;;;;;2.23;2.03;;;3.80;97.30;;;;;;5079483;28;20160;-91
2020/12/05 04:16:06;;;;;;;2.00;1.73;;;3.80;97.00;;;;;;5048320;28;20192;-90
2020/12/05 04:18:32;;;;;;;1.67;1.57;;;3.70;97.60;;;;;;5049878;28;20251;-90
2020/12/05 04:20:57;;;;;;;2.77;1.70;;;3.80;97.80;;;;;;5063646;28;20260;-90
2020/12/05 04:23:23;;;;;;;1.67;1.40;;;3.70;98.70;;;;;;5062543;28;20200;-91
2020/12/05 04:25:49;;;;;;;1.70;1.60;;;3.80;97.10;;;;;;5048201;28;20206;-91
2020/12/05 04:28:14;;;;;;;1.50;1.40;;;3.90;96.60;;;;;;5066239;28;20180;-91
2020/12/05 04:30:40;;;;;;;1.70;1.60;;;3.80;96.10;;;;;;5048307;28;20208;-91
2020/12/05 04:33:06;;;;;;;2.17;1.30;;;3.90;96.30;;;;;;5065746;28;20658;-91
2020/12/05 04:35:32;;;;;;;1.50;1.40;;;3.80;96.20;;;;;;5047725;28;20253;-91
2020/12/05 04:37:57;;;;;;;1.47;1.30;;;3.80;97.10;;;;;;5064806;28;20593;-91
2020/12/05 04:40:23;;;;;;;1.30;1.20;;;3.80;96.00;;;;;;5017742;28;20201;-91
2020/12/05 04:42:49;;;;;;;2.13;1.40;;;3.90;95.90;;;;;;5011408;28;20212;-90
2020/12/05 04:45:16;;;;;;;1.10;1.10;;;3.80;96.30;;;;;;5011684;28;20181;-91
2020/12/05 04:47:43;;;;;;;1.27;1.20;;;3.80;96.40;;;;;;5012346;28;20239;-90
2020/12/05 04:50:11;;;;;;;1.30;1.20;;;3.80;96.00;;;;;;5046502;28;20702;-91
2020/12/05 04:52:39;;;;;;;1.43;1.30;;;3.80;96.00;;;;;;5046934;28;20184;-90
2020/12/05 04:55:06;;;;;;;1.30;1.20;;;3.80;96.90;;;;;;5045790;28;20479;-91
2020/12/05 04:57:44;;;;;;;2.30;1.30;;;3.90;96.30;;;;;;5029751;28;20188;-91
2020/12/05 05:00:10;;;;;;;1.60;1.50;;;3.80;96.70;;;;;;5027588;28;20172;-91
2020/12/05 05:02:42;;;;;;;1.20;1.20;;;3.80;96.70;;;;;;5028202;28;20220;-91
2020/12/05 05:05:10;;;;;;;2.80;1.77;;;3.80;96.90;;;;;;5045227;28;20177;-91
2020/12/05 05:07:46;;;;;;;1.30;1.20;;;3.80;96.70;;;;;;5012204;28;20181;-91
2020/12/05 05:10:18;;;;;;;1.20;1.20;;;3.90;96.10;;;;;;5027074;28;20235;-90
2020/12/05 05:12:44;;;;;;;1.30;1.20;;;3.90;96.20;;;;;;5054780;28;20267;-91
2020/12/05 05:15:29;;;;;;;1.30;1.20;;;4.00;94.70;;;;;;5030864;28;20188;-91
2020/12/05 05:17:57;;;;;;;1.20;1.20;;;4.00;95.40;;;;;;5066589;28;20157;-90
2020/12/05 05:20:23;;;;;;;1.20;1.20;;;3.90;95.20;;;;;;5048472;28;20212;-91
2020/12/05 05:23:19;;;;;;;1.50;1.40;;;4.00;95.20;;;;;;5066442;28;20212;-91
2020/12/05 05:25:55;;;;;;;1.10;1.10;;;4.00;94.50;;;;;;5048949;28;20172;-91
2020/12/05 05:28:27;;;;;;;1.27;1.20;;;4.00;95.30;;;;;;5066178;28;20203;-91
2020/12/05 05:30:59;;;;;;;1.37;1.20;;;4.00;95.20;;;;;;5048373;28;20224;-91
2020/12/05 05:33:25;;;;;;;2.73;1.20;;;4.10;94.80;;;;;;5068172;28;20225;-91
2020/12/05 05:35:51;;;;;;;1.27;1.20;;;4.20;94.20;;;;;;5049208;28;20203;-91
2020/12/05 05:38:23;;;;;;;1.40;1.30;;;4.10;94.30;;;;;;5048421;28;20184;-91
2020/12/05 05:40:50;;;;;;;1.30;1.20;;;4.30;93.20;;;;;;5032406;28;20196;-91
2020/12/05 05:43:21;;;;;;;1.00;1.00;;;4.30;93.00;;;;;;5048781;28;20207;-92
2020/12/05 05:45:47;;;;;;;1.30;1.20;;;4.40;92.50;;;;;;5049350;28;20172;-90
2020/12/05 05:48:13;;;;;;;1.20;1.20;;;4.50;92.20;;;;;;5067382;28;20196;-90
2020/12/05 05:50:40;;;;;;;1.10;1.10;;;4.50;92.10;;;;;;5068781;28;20196;-91
2020/12/05 05:53:08;;;;;;;2.03;1.20;;;4.40;91.80;;;;;;5048342;28;20203;-91
2020/12/05 05:55:48;;;;;;;1.33;1.17;;;4.40;92.00;;;;;;5064319;28;20188;-91
2020/12/05 05:58:20;;;;;;;1.40;1.30;;;4.50;92.00;;;;;;5048150;28;20230;-92
2020/12/05 06:00:51;;;;;;;6.57;4.63;;;4.50;92.00;;;;;;5066014;28;20204;-90
2020/12/05 06:03:25;;;;;;;3.50;3.20;;;4.60;91.50;;;;;;5066877;28;20219;-94
2020/12/05 06:05:52;;;;;;;2.40;2.20;;;4.60;91.10;;;;;;5047944;28;20199;-92
2020/12/05 06:08:26;;;;;;;1.67;1.57;;;4.60;90.30;;;;;;5031146;28;20195;-90
2020/12/05 06:10:59;;;;;;;1.20;1.20;;;4.60;90.80;;;;;;5036337;28;20303;-92
2020/12/05 06:13:29;;;;;;;1.80;1.70;;;4.70;90.10;;;;;;5045514;28;20201;-91
2020/12/05 06:15:57;;;;;;;2.10;2.00;;;4.60;89.70;;;;;;5047612;28;20170;-91
2020/12/05 06:18:24;;;;;;;1.40;1.40;;;4.70;89.30;;;;;;5030045;28;20185;-91
2020/12/05 06:20:50;;;;;;;1.40;1.30;;;4.70;89.40;;;;;;5016533;28;20292;-91
2020/12/05 06:23:31;;;;;;;1.40;1.30;;;4.60;89.60;;;;;;5031024;28;20630;-91
2020/12/05 06:26:00;;;;;;;1.23;1.23;;;4.60;89.90;;;;;;5047846;28;20177;-91
2020/12/05 06:28:27;;;;;;;1.50;1.40;;;4.60;89.80;;;;;;5049498;28;20673;-91
2020/12/05 06:30:53;;;;;;;1.57;1.47;;;4.50;90.10;;;;;;5029262;28;20207;-91
2020/12/05 06:33:51;;;;;;;1.40;1.30;;;4.50;90.00;;;;;;5012673;28;20217;-91
2020/12/05 06:36:38;;;;;;;1.63;1.53;;;4.50;89.70;;;;;;5015361;28;20201;-91
2020/12/05 06:39:03;;;;;;;2.67;1.63;;;4.50;89.10;;;;;;5031918;28;20169;-91
2020/12/05 06:41:37;;;;;;;1.63;1.53;;;4.50;89.20;;;;;;5046990;28;20278;-91
2020/12/05 06:44:31;;;;;;;1.97;1.50;;;4.50;89.10;;;;;;5042787;28;20191;-92
2020/12/05 06:47:02;;;;;;;1.50;1.40;;;4.50;88.60;;;;;;5064069;28;20188;-92
2020/12/05 06:49:40;;;;;;;1.90;1.80;;;4.50;88.70;;;;;;5063088;28;20184;-91
2020/12/05 06:52:24;;;;;;;1.50;1.40;;;4.40;88.50;;;;;;5048774;28;20748;-92
2020/12/05 06:55:01;;;;;;;1.40;1.40;;;4.50;88.60;;;;;;5040721;28;20208;-90
2020/12/05 06:57:28;;;;;;;1.60;1.50;;;4.50;87.90;;;;;;5064902;28;20167;-91
2020/12/05 07:00:14;;;;;;;1.83;1.67;;;4.40;88.20;;;;;;5068217;28;20188;-91
2020/12/05 07:03:08;;;;;;;1.80;1.70;;;4.40;88.40;;;;;;5066489;28;20302;-91
2020/12/05 07:05:43;;;;;;;1.70;1.60;;;4.50;88.00;;;;;;5076771;28;20161;-90
2020/12/05 07:08:23;;;;;;;1.70;1.60;;;4.50;88.10;;;;;;5044597;28;20214;-89
2020/12/05 07:10:55;;;;;;;1.63;1.53;;;4.50;87.60;;;;;;5028719;28;20230;-93
2020/12/05 07:13:29;;;;;;;1.53;1.33;;;4.50;87.00;;;;;;5028066;28;20204;-93
2020/12/05 07:16:28;;;;;;;1.73;1.63;;;4.40;86.70;;;;;;5050452;28;20176;-93
2020/12/05 07:19:01;;;;;;;2.50;2.30;;;4.40;84.90;;;;;;5013962;28;20206;-93
2020/12/05 07:21:29;;;;;;;2.13;1.63;;;4.20;86.00;;;;;;5048761;28;20208;-93
2020/12/05 07:23:55;;;;;;;2.83;1.60;;;3.90;87.20;;;;;;5067934;28;20204;-93
2020/12/05 07:26:22;;;;;;;2.23;1.77;;;3.80;88.00;;;;;;5050551;28;20210;-91
2020/12/05 07:28:49;;;;;;;1.60;1.50;;;3.90;88.10;;;;;;5066261;28;20184;-90
2020/12/05 07:31:16;;;;;;;3.27;1.67;;;4.10;88.30;;;;;;5064752;28;20201;-90
2020/12/05 07:33:43;;;;;;;1.93;1.50;;;4.00;87.90;;;;;;5047823;28;20203;-90
2020/12/05 07:36:10;;;;;;;2.53;1.60;;;4.00;88.90;;;;;;5039296;28;20184;-90
2020/12/05 07:38:40;;;;;;;1.73;1.47;;;4.00;89.30;;;;;;5036616;28;20274;-90
2020/12/05 07:41:14;;;;;;;1.87;1.70;;;4.10;88.90;;;;;;5027510;28;20232;-91
2020/12/05 07:43:40;;;;;;;2.10;2.00;;;4.20;88.90;;;;;;5048379;28;20548;-91
2020/12/05 07:46:08;;;;;;;1.80;1.70;;;4.30;88.70;;;;;;5088558;28;20205;-91
2020/12/05 07:48:34;;;;;;;2.20;2.00;;;4.30;88.40;;;;;;5082762;28;20192;-91
2020/12/05 07:51:01;;;;;;;1.73;1.63;;;4.30;89.30;;;;;;5012591;28;20209;-91
2020/12/05 07:53:34;;;;;;;2.40;2.20;;;4.20;90.00;;;;;;5065817;28;20191;-91
2020/12/05 07:56:19;;;;;;;2.67;2.47;;;4.20;90.50;;;;;;5047192;28;20220;-91
2020/12/05 07:58:53;;;;;;;2.00;1.90;;;4.20;90.70;;;;;;5048241;28;20272;-91
2020/12/05 08:01:39;;;;;;;2.50;2.30;;;4.30;90.70;;;;;;5067015;28;20208;-91
2020/12/05 08:04:38;;;;;;;2.50;2.30;;;4.40;90.40;;;;;;5070814;28;20187;-90
2020/12/05 08:07:06;;;;;;;5.23;4.73;;;4.50;90.60;;;;;;5082227;28;20171;-91
2020/12/05 08:09:34;;;;;;;3.03;2.83;;;4.50;90.00;;;;;;5041643;28;20181;-92
2020/12/05 08:12:02;;;;;;;3.10;2.90;;;4.50;89.80;;;;;;5029580;28;20732;-91
2020/12/05 08:14:31;;;;;;;3.20;2.97;;;4.50;90.00;;;;;;5041015;28;20227;-91
2020/12/05 08:17:00;;;;;;;2.90;2.70;;;4.60;89.60;;;;;;5047782;28;20204;-91
2020/12/05 08:19:26;;;;;;;6.23;3.80;;;4.60;89.70;;;;;;5044997;28;20196;-91
2020/12/05 08:21:52;;;;;;;4.83;4.43;;;4.60;90.40;;;;;;5034121;28;20299;-91
2020/12/05 08:24:18;;;;;;;5.20;4.80;;;4.60;91.10;;;;;;5033418;28;20275;-91
2020/12/05 08:26:44;;;;;;;4.97;4.20;;;4.50;91.90;;;;;;5090281;28;20180;-90
2020/12/05 08:29:10;;;;;;;5.80;5.30;;;4.50;92.00;;;;;;5067046;28;20187;-89
2020/12/05 08:31:43;;;;;;;7.40;6.70;;;4.50;91.80;;;;;;5085369;28;20241;-90
2020/12/05 08:34:09;;;;;;;6.67;6.03;;;4.50;92.20;;;;;;5068232;28;20163;-90
2020/12/05 08:36:40;;;;;;;6.30;5.43;;;4.50;92.10;;;;;;5053362;28;20180;-90
2020/12/05 08:39:09;;;;;;;5.00;4.60;;;4.60;92.00;;;;;;5047898;28;20214;-90
2020/12/05 08:42:04;;;;;;;5.30;4.23;;;4.60;91.30;;;;;;5066587;28;20264;-92
2020/12/05 08:44:30;;;;;;;4.80;4.37;;;4.50;91.30;;;;;;5064984;28;20207;-90
2020/12/05 08:47:04;;;;;;;5.50;5.07;;;4.50;91.40;;;;;;5043434;28;20176;-90
2020/12/05 08:49:41;;;;;;;4.37;3.47;;;4.60;91.00;;;;;;5072968;28;20655;-89
2020/12/05 08:52:08;;;;;;;4.17;3.07;;;4.70;90.20;;;;;;5068687;28;20195;-89
2020/12/05 08:54:51;;;;;;;6.10;5.43;;;4.60;89.90;;;;;;5070540;28;20175;-90
2020/12/05 08:57:18;;;;;;;4.30;4.00;;;4.50;90.20;;;;;;5083654;28;20405;-90
2020/12/05 08:59:45;;;;;;;4.50;4.10;;;4.50;91.00;;;;;;5042214;28;20189;-90
2020/12/05 09:02:12;;;;;;;4.40;4.00;;;4.40;91.70;;;;;;5068070;28;20222;-90
2020/12/05 09:04:38;;;;;;;5.57;4.43;;;4.50;91.80;;;;;;5066129;28;20202;-89
2020/12/05 09:07:17;;;;;;;4.73;4.33;;;4.50;91.70;;;;;;5033964;28;20211;-90
2020/12/05 09:09:46;;;;;;;5.17;4.73;;;4.50;92.10;;;;;;5049103;28;20184;-91
2020/12/05 09:12:16;;;;;;;6.07;5.57;;;4.60;91.50;;;;;;5049316;28;20204;-89
2020/12/05 09:14:47;;;;;;;5.43;4.83;;;4.90;90.60;;;;;;5069701;28;20243;-90
2020/12/05 09:17:30;;;;;;;5.20;4.50;;;4.90;90.00;;;;;;5070908;28;20184;-90
2020/12/05 09:20:29;;;;;;;6.70;5.27;;;4.90;89.70;;;;;;5047939;28;20196;-90
2020/12/05 09:22:56;;;;;;;6.07;5.50;;;4.70;90.60;;;;;;5006684;28;20304;-90
2020/12/05 09:25:36;;;;;;;6.63;5.63;;;4.60;91.80;;;;;;5049852;28;20199;-90
2020/12/05 09:28:08;;;;;;;5.60;5.10;;;4.70;91.80;;;;;;5050443;28;20173;-91
2020/12/05 09:30:34;;;;;;;5.80;5.30;;;4.60;92.00;;;;;;5073022;28;20453;-91
2020/12/05 09:33:06;;;;;;;6.77;6.13;;;4.80;92.10;;;;;;5077323;28;20160;-91
2020/12/05 09:35:32;;;;;;;10.10;8.63;;;4.90;91.40;;;;;;5059952;28;20180;-92
2020/12/05 09:38:02;;;;;;;9.60;7.63;;;4.90;91.00;;;;;;5059546;28;20226;-93
2020/12/05 09:40:28;;;;;;;9.77;6.87;;;4.90;91.30;;;;;;5050762;28;20208;-91
2020/12/05 09:42:54;;;;;;;6.53;5.93;;;4.90;91.40;;;;;;5052995;28;20234;-93
2020/12/05 09:45:19;;;;;;;6.23;5.57;;;5.00;90.70;;;;;;5061617;28;20203;-92
2020/12/05 09:47:45;;;;;;;5.90;5.30;;;5.10;90.00;;;;;;5076633;28;20224;-92
2020/12/05 09:50:11;;;;;;;7.73;5.80;;;5.00;90.40;;;;;;5029362;28;20184;-93
2020/12/05 09:52:37;;;;;;;6.43;5.73;;;5.10;90.00;;;;;;5048875;28;20183;-93
2020/12/05 09:55:04;;;;;;;7.27;6.43;;;5.10;90.50;;;;;;5049475;28;20177;-92
2020/12/05 09:57:30;;;;;;;5.53;5.03;;;5.20;89.40;;;;;;5051161;28;20246;-93
2020/12/05 09:59:56;;;;;;;6.37;5.83;;;5.20;90.20;;;;;;5051482;28;20185;-92
2020/12/05 10:02:22;;;;;;;6.30;5.73;;;5.30;89.20;;;;;;5035483;28;20272;-92
2020/12/05 10:04:48;;;;;;;5.50;5.00;;;5.20;89.60;;;;;;5051919;28;20206;-94
2020/12/05 10:07:13;;;;;;;5.63;5.20;;;5.20;89.30;;;;;;5051408;28;20191;-93
2020/12/05 10:09:39;;;;;;;5.53;5.03;;;5.20;89.80;;;;;;5035701;28;20192;-92
2020/12/05 10:12:06;;;;;;;5.63;5.03;;;5.20;90.10;;;;;;5068910;28;20204;-93
2020/12/05 10:14:32;;;;;;;6.03;5.43;;;5.40;89.30;;;;;;5068154;28;20176;-92
2020/12/05 10:16:58;;;;;;;6.73;5.23;;;5.50;89.40;;;;;;5068108;28;20266;-92
2020/12/05 10:19:24;;;;;;;6.63;5.27;;;5.50;88.90;;;;;;5048825;28;20195;-93
2020/12/05 10:21:51;;;;;;;5.67;5.07;;;5.50;89.70;;;;;;5048935;28;20220;-92
2020/12/05 10:24:18;;;;;;;4.90;4.50;;;5.60;89.60;;;;;;5049135;28;20241;-93
2020/12/05 10:26:48;;;;;;;3.80;3.50;;;5.60;89.70;;;;;;5066849;28;20168;-92
2020/12/05 10:29:14;;;;;;;4.00;3.67;;;5.50;90.30;;;;;;5049274;28;20237;-93
2020/12/05 10:31:46;;;;;;;4.40;4.00;;;5.40;91.00;;;;;;5047793;28;20617;-93
2020/12/05 10:34:13;;;;;;;4.73;4.33;;;5.50;90.40;;;;;;5047381;28;20318;-92
2020/12/05 10:36:39;;;;;;;3.87;3.53;;;5.50;90.00;;;;;;5046829;28;20240;-93
2020/12/05 10:39:05;;;;;;;3.87;3.47;;;5.50;90.90;;;;;;5030480;28;20651;-92
2020/12/05 10:41:31;;;;;;;4.60;4.20;;;5.50;89.30;;;;;;5065941;28;20227;-93
2020/12/05 10:43:57;;;;;;;4.40;3.97;;;5.60;89.20;;;;;;5034215;28;20212;-92
2020/12/05 10:46:24;;;;;;;4.07;3.73;;;5.60;89.50;;;;;;5065457;28;20207;-92
2020/12/05 10:48:50;;;;;;;4.60;3.77;;;5.60;89.20;;;;;;5028377;28;20234;-91
2020/12/05 10:51:17;;;;;;;3.20;2.90;;;5.50;90.30;;;;;;5045510;28;20200;-89
2020/12/05 10:53:43;;;;;;;3.23;3.00;;;5.50;90.10;;;;;;5064941;28;20187;-90
2020/12/05 10:56:12;;;;;;;4.43;3.50;;;5.50;89.40;;;;;;5047983;28;20184;-92
2020/12/05 10:58:37;;;;;;;8.20;7.40;;;5.50;88.80;;;;;;5032793;28;20184;-92
2020/12/05 11:01:04;;;;;;;7.27;4.80;;;5.60;89.30;;;;;;5012211;28;20208;-92
2020/12/05 11:03:29;;;;;;;4.53;3.90;;;5.60;89.80;;;;;;5046421;28;20258;-91
2020/12/05 11:05:56;;;;;;;6.23;5.73;;;5.60;90.00;;;;;;5034383;28;20178;-91
2020/12/05 11:08:21;;;;;;;4.73;4.33;;;5.60;89.50;;;;;;5044987;28;20647;-92
2020/12/05 11:10:47;;;;;;;6.50;5.73;;;5.70;89.50;;;;;;5027383;28;20200;-91
2020/12/05 11:13:13;;;;;;;6.20;5.60;;;5.70;89.10;;;;;;5027426;28;20208;-92
2020/12/05 11:15:39;;;;;;;7.10;6.43;;;5.80;88.90;;;;;;5026978;28;20193;-91
2020/12/05 11:18:06;;;;;;;5.17;4.67;;;5.70;89.70;;;;;;5043940;28;20241;-91
2020/12/05 11:20:31;;;;;;;6.67;6.07;;;5.70;89.50;;;;;;5043572;28;20213;-90
2020/12/05 11:22:57;;;;;;;7.37;6.77;;;5.80;89.20;;;;;;5025696;28;20308;-90
2020/12/05 11:25:23;;;;;;;5.83;5.33;;;5.80;89.00;;;;;;5026366;28;20548;-90
2020/12/05 11:27:48;;;;;;;12.50;11.20;;;5.80;89.10;;;;;;5026357;28;20188;-90
2020/12/05 11:30:14;;;;;;;34.03;30.77;;;5.90;89.30;;;;;;5024597;28;20584;-91
2020/12/05 11:32:40;;;;;;;5.67;5.17;;;5.80;90.30;;;;;;5010397;28;20189;-91
2020/12/05 11:35:07;;;;;;;8.03;7.33;;;5.80;89.50;;;;;;5027423;28;20185;-90
2020/12/05 11:37:33;;;;;;;8.90;7.87;;;5.80;90.10;;;;;;5026541;28;20192;-90
2020/12/05 11:39:59;;;;;;;5.17;4.67;;;5.80;90.00;;;;;;5028194;28;20204;-91
2020/12/05 11:42:31;;;;;;;5.60;5.00;;;5.80;89.60;;;;;;5010922;28;20213;-91
2020/12/05 11:44:58;;;;;;;4.23;3.87;;;5.80;88.80;;;;;;5012204;28;20177;-91
2020/12/05 11:47:24;;;;;;;5.10;4.70;;;5.80;90.00;;;;;;5010998;28;20181;-91
2020/12/05 11:49:50;;;;;;;5.13;4.73;;;5.80;90.30;;;;;;5044627;28;20173;-92
2020/12/05 11:52:16;;;;;;;7.57;6.97;;;5.90;90.00;;;;;;5027578;28;20201;-91
2020/12/05 11:54:42;;;;;;;7.33;6.83;;;5.90;89.70;;;;;;5026032;28;20312;-91
2020/12/05 11:57:07;;;;;;;5.83;5.33;;;6.00;89.40;;;;;;5025987;28;20258;-91
2020/12/05 11:59:33;;;;;;;5.03;4.47;;;5.90;89.40;;;;;;5008995;28;20192;-91
2020/12/05 12:01:59;;;;;;;4.57;4.20;;;5.90;89.80;;;;;;5011463;28;20276;-91
2020/12/05 12:04:25;;;;;;;5.20;4.80;;;6.00;89.70;;;;;;5046174;28;20671;-91
2020/12/05 12:06:51;;;;;;;8.00;7.33;;;5.90;89.70;;;;;;5027882;28;20189;-91
2020/12/05 12:09:16;;;;;;;5.73;5.23;;;6.00;90.10;;;;;;5029115;28;20211;-91
2020/12/05 12:11:42;;;;;;;5.97;5.57;;;6.00;90.10;;;;;;5027103;28;20203;-91
2020/12/05 12:14:08;;;;;;;6.37;5.77;;;6.00;90.40;;;;;;5014177;28;20200;-93
2020/12/05 12:16:34;;;;;;;5.53;5.13;;;6.00;90.70;;;;;;5040126;28;20205;-92
2020/12/05 12:19:00;;;;;;;6.80;6.23;;;6.00;91.20;;;;;;5028877;28;20228;-90
2020/12/05 12:21:26;;;;;;;6.30;5.80;;;5.90;91.90;;;;;;5013413;28;20208;-91
2020/12/05 12:23:53;;;;;;;8.50;7.80;;;5.90;92.20;;;;;;5042834;28;20252;-92
2020/12/05 12:26:19;;;;;;;8.90;6.90;;;5.90;92.40;;;;;;5027357;28;20193;-91
2020/12/05 12:28:45;;;;;;;6.27;5.77;;;5.90;92.30;;;;;;5014082;28;20242;-91
2020/12/05 12:31:11;;;;;;;5.87;5.37;;;5.90;92.20;;;;;;5045710;28;20204;-91
2020/12/05 12:33:38;;;;;;;6.00;5.43;;;6.00;91.80;;;;;;5033214;28;20196;-91
2020/12/05 12:36:04;;;;;;;7.10;5.23;;;6.00;91.60;;;;;;5047931;28;20203;-90
2020/12/05 12:38:30;;;;;;;5.27;4.77;;;6.00;91.20;;;;;;5043447;28;20187;-90
2020/12/05 12:40:56;;;;;;;6.20;5.60;;;6.00;90.60;;;;;;5075458;28;20234;-89
2020/12/05 12:43:22;;;;;;;6.27;5.17;;;6.00;89.90;;;;;;5070437;28;20290;-90
2020/12/05 12:45:48;;;;;;;5.73;5.17;;;5.90;90.60;;;;;;5066871;28;20821;-90
2020/12/05 12:50:48;;;;;;;4.77;4.37;;;6.00;90.10;;;;;;5062503;28;20211;-91
2020/12/05 12:53:14;;;;;;;5.33;4.83;;;6.10;88.70;;;;;;5086206;28;20663;-90
2020/12/05 12:55:41;;;;;;;8.70;6.40;;;6.20;88.30;;;;;;5040827;28;20180;-90
2020/12/05 12:58:14;;;;;;;8.00;6.13;;;6.20;88.80;;;;;;5085781;28;20183;-90
2020/12/05 13:00:40;;;;;;;6.03;5.43;;;6.30;88.60;;;;;;5081732;28;20559;-90
2020/12/05 13:03:07;;;;;;;6.23;5.67;;;6.30;87.70;;;;;;5044534;28;20283;-90